Time;durP1;ratioP1;P1;durP2;ratioP2;P2;SDS_P1;SDS_P2;PMS_P1;PMS_P2;Temp;Humidity;BMP_temperature;BMP_pressure;BME280_temperature;BME280_humidity;BME280_pressure;Samples;Min_cycle;Max_cycle;Signal;HPM_P1;HPM_P2
2023/03/06 00:03:34;;;;;;;6.95;1.92;;;;;;;16.01;53.71;95863.38;10331630;28;20053;-32
2023/03/06 00:08:34;;;;;;;3.95;1.92;;;;;;;15.99;54.00;95860.91;10331680;28;20065;-31
2023/03/06 00:13:35;;;;;;;2.97;2.10;;;;;;;16.00;54.04;95851.63;10330415;28;20257;-32
2023/03/06 00:18:35;;;;;;;6.63;2.00;;;;;;;16.00;53.82;95831.44;10331298;28;20030;-31
2023/03/06 00:23:35;;;;;;;3.70;2.03;;;;;;;16.05;53.41;95825.53;10330052;28;20705;-32
2023/03/06 00:28:36;;;;;;;4.10;3.00;;;;;;;16.05;54.30;95815.44;10290879;28;20294;-33
2023/03/06 00:33:36;;;;;;;3.90;2.38;;;;;;;16.09;53.76;95806.13;10312923;28;20360;-31
2023/03/06 00:38:37;;;;;;;3.67;2.10;;;;;;;16.04;53.67;95803.63;10312284;28;20038;-32
2023/03/06 00:43:37;;;;;;;2.90;2.20;;;;;;;16.05;53.54;95805.34;10311847;28;20061;-31
2023/03/06 00:48:38;;;;;;;3.58;2.03;;;;;;;16.04;53.50;95797.75;10312065;28;20038;-32
2023/03/06 00:53:38;;;;;;;3.42;1.60;;;;;;;16.05;53.63;95805.34;10304305;28;20283;-32
2023/03/06 00:58:39;;;;;;;6.00;2.33;;;;;;;16.04;53.74;95803.63;10272415;28;20034;-32
2023/03/06 01:03:39;;;;;;;1.87;1.63;;;;;;;16.04;53.43;95787.66;10329193;28;20184;-32
2023/03/06 01:08:40;;;;;;;4.10;2.20;;;;;;;16.04;53.39;95782.63;10311353;28;20041;-32
2023/03/06 01:13:40;;;;;;;3.92;2.10;;;;;;;15.96;53.25;95770.03;10326322;28;20041;-32
2023/03/06 01:18:41;;;;;;;3.03;2.10;;;;;;;16.02;53.70;95779.28;10329066;28;20042;-31
2023/03/06 01:23:42;;;;;;;3.25;1.95;;;;;;;16.00;53.45;95781.78;10306003;28;20038;-31
2023/03/06 01:28:42;;;;;;;2.03;1.75;;;;;;;16.02;53.57;95774.22;10271439;28;20412;-31
2023/03/06 01:33:43;;;;;;;4.55;1.85;;;;;;;15.98;54.10;95773.41;10288227;28;20042;-31
2023/03/06 01:38:46;;;;;;;3.30;1.50;;;;;;;16.02;53.84;95769.16;10302366;28;20052;-31
2023/03/06 01:43:48;;;;;;;2.50;1.90;;;;;;;16.02;55.15;95761.59;10327888;28;20701;-32
2023/03/06 01:48:53;;;;;;;1.88;1.50;;;;;;;16.05;54.60;95759.03;10310704;28;20125;-31
2023/03/06 01:53:55;;;;;;;3.28;1.75;;;;;;;16.01;53.98;95758.22;10309987;28;20045;-33
2023/03/06 01:58:57;;;;;;;5.80;2.13;;;;;;;15.99;53.68;95744.78;10327887;28;20030;-30
2023/03/06 02:03:59;;;;;;;2.53;1.70;;;;;;;15.99;53.53;95733.84;10333013;28;20093;-31
2023/03/06 02:09:00;;;;;;;2.33;1.60;;;;;;;15.97;53.73;95736.38;10335863;28;20061;-31
2023/03/06 02:14:01;;;;;;;2.40;1.60;;;;;;;15.95;53.63;95745.63;10334683;28;20085;-31
2023/03/06 02:19:04;;;;;;;2.90;2.17;;;;;;;15.96;54.06;95737.22;10318351;28;20034;-32
2023/03/06 02:24:22;;;;;;;4.50;1.83;;;;;;;15.92;53.85;95722.94;10317382;28;20053;-32
2023/03/06 02:29:27;;;;;;;2.08;1.88;;;;;;;15.94;53.73;95731.34;10317306;28;20034;-32
2023/03/06 02:34:52;;;;;;;2.67;1.60;;;;;;;15.94;53.52;95728.81;10317444;28;20041;-32
2023/03/06 02:40:04;;;;;;;3.85;2.25;;;;;;;15.92;53.94;95720.41;10302941;28;20035;-31
2023/03/06 02:45:09;;;;;;;2.65;1.70;;;;;;;15.92;53.70;95714.50;10312984;28;20041;-31
2023/03/06 02:50:10;;;;;;;4.72;1.80;;;;;;;15.93;53.88;95712.00;10324978;28;20087;-31
2023/03/06 02:55:10;;;;;;;3.47;1.77;;;;;;;15.92;53.72;95707.78;10315727;28;20031;-32
2023/03/06 03:00:12;;;;;;;2.83;2.47;;;;;;;15.97;54.53;95706.09;10333119;28;20481;-32
2023/03/06 03:05:12;;;;;;;3.65;2.20;;;;;;;15.98;54.30;95687.56;10333510;28;20556;-31
2023/03/06 03:10:16;;;;;;;2.70;1.85;;;;;;;15.95;53.95;95681.72;10316945;28;20053;-31
2023/03/06 03:15:18;;;;;;;3.33;2.03;;;;;;;15.95;53.82;95687.56;10321931;28;20037;-31
2023/03/06 03:20:21;;;;;;;3.05;1.88;;;;;;;15.95;53.39;95677.47;10332463;28;20080;-32
2023/03/06 03:25:23;;;;;;;2.30;1.73;;;;;;;15.95;53.92;95674.94;10332477;28;20061;-32
2023/03/06 03:30:24;;;;;;;2.70;1.75;;;;;;;15.97;53.57;95685.91;10331137;28;20038;-31
2023/03/06 03:35:25;;;;;;;3.78;1.60;;;;;;;15.97;53.41;95674.94;10315215;28;20034;-31
2023/03/06 03:40:26;;;;;;;1.95;1.58;;;;;;;15.97;53.55;95660.66;10314307;28;20033;-32
2023/03/06 03:45:27;;;;;;;2.88;1.75;;;;;;;15.96;53.53;95669.06;10308550;28;20487;-31
2023/03/06 03:50:27;;;;;;;2.50;1.70;;;;;;;15.95;53.46;95646.38;10275071;28;20027;-31
2023/03/06 03:55:28;;;;;;;1.88;1.40;;;;;;;15.95;53.73;95642.16;10322112;28;20042;-31
2023/03/06 04:00:29;;;;;;;3.85;1.70;;;;;;;15.94;53.97;95635.41;10291204;28;20037;-31
2023/03/06 04:05:40;;;;;;;2.92;1.77;;;;;;;15.85;53.35;95617.00;10274419;28;20070;-32
2023/03/06 04:10:42;;;;;;;2.88;1.60;;;;;;;15.95;53.42;95632.03;10329608;28;20498;-32
2023/03/06 04:15:44;;;;;;;2.58;1.70;;;;;;;15.99;53.64;95643.81;10318284;28;20507;-32
2023/03/06 04:20:46;;;;;;;2.97;1.67;;;;;;;16.01;54.32;95641.25;10274295;28;20034;-33
2023/03/06 04:25:47;;;;;;;2.10;1.42;;;;;;;16.01;53.13;95644.63;10285598;28;20034;-32
2023/03/06 04:30:47;;;;;;;2.33;1.88;;;;;;;15.98;53.52;95647.19;10316109;28;20482;-32
2023/03/06 04:35:49;;;;;;;3.28;1.77;;;;;;;15.95;53.50;95641.31;10326996;28;20036;-32
2023/03/06 04:40:55;;;;;;;1.75;1.60;;;;;;;15.93;53.11;95651.41;10322099;28;20316;-31
2023/03/06 04:45:57;;;;;;;2.03;1.37;;;;;;;15.90;53.67;95637.97;10345936;28;20045;-31
2023/03/06 04:50:57;;;;;;;2.58;1.60;;;;;;;15.90;52.82;95643.88;10335530;28;20042;-31
2023/03/06 04:55:58;;;;;;;2.23;1.40;;;;;;;15.92;52.97;95647.22;10342478;28;20392;-31
2023/03/06 05:00:58;;;;;;;2.33;1.50;;;;;;;15.95;52.54;95639.63;10342658;28;20451;-32
2023/03/06 05:05:59;;;;;;;1.87;1.47;;;;;;;16.01;52.50;95644.63;10340876;28;20064;-31
2023/03/06 05:11:01;;;;;;;2.28;1.63;;;;;;;16.05;52.52;95642.91;10328751;28;20414;-32
2023/03/06 05:16:03;;;;;;;2.30;1.45;;;;;;;16.10;51.67;95642.03;10330833;28;20125;-33
2023/03/06 05:21:04;;;;;;;2.45;1.60;;;;;;;16.12;52.03;95645.38;10341800;28;20045;-32
2023/03/06 05:26:08;;;;;;;1.92;1.60;;;;;;;16.14;51.93;95631.06;10317722;28;20042;-32
2023/03/06 05:31:08;;;;;;;3.38;1.60;;;;;;;16.12;52.27;95632.75;10331962;28;20030;-32
2023/03/06 05:36:09;;;;;;;3.33;2.17;;;;;;;16.15;51.86;95622.66;10321384;28;20511;-31
2023/03/06 05:41:13;;;;;;;4.65;2.38;;;;;;;16.07;52.25;95616.81;10339747;28;20402;-32
2023/03/06 05:46:13;;;;;;;3.38;2.40;;;;;;;16.14;51.60;95627.69;10330537;28;20035;-36
2023/03/06 05:51:14;;;;;;;5.63;1.80;;;;;;;16.13;51.97;95619.28;10324743;28;20049;-31
2023/03/06 05:56:14;;;;;;;4.28;2.30;;;;;;;16.15;51.39;95626.84;10337470;28;20212;-31
2023/03/06 06:01:17;;;;;;;4.72;2.20;;;;;;;16.10;51.80;95626.06;10336379;28;20030;-31
2023/03/06 06:06:17;;;;;;;6.30;2.10;;;;;;;16.13;51.91;95626.03;10325307;28;20038;-32
2023/03/06 06:11:19;;;;;;;10.70;2.20;;;;;;;16.08;52.49;95615.97;10308256;28;20034;-31
2023/03/06 06:16:20;;;;;;;6.10;3.20;;;;;;;16.06;52.18;95630.31;10316867;28;20042;-34
2023/03/06 06:21:20;;;;;;;9.17;2.17;;;;;;;16.08;52.38;95632.78;10327524;28;20044;-31
2023/03/06 06:26:20;;;;;;;6.90;4.50;;;;;;;15.44;47.30;95642.47;10292575;28;20047;-33
2023/03/06 06:31:21;;;;;;;8.07;5.13;;;;;;;15.72;47.59;95635.59;10315469;28;20820;-32
2023/03/06 06:36:21;;;;;;;8.75;3.90;;;;;;;15.82;49.60;95640.56;10326505;28;20486;-32
2023/03/06 06:41:22;;;;;;;6.67;3.90;;;;;;;15.82;50.09;95633.00;10327137;28;20030;-31
2023/03/06 06:46:22;;;;;;;6.45;3.10;;;;;;;15.88;50.90;95643.03;10325649;28;20049;-31
2023/03/06 06:51:23;;;;;;;6.38;3.67;;;;;;;15.91;51.17;95629.56;10293952;28;20492;-32
2023/03/06 06:56:23;;;;;;;10.63;2.67;;;;;;;15.85;52.42;95629.63;10293813;28;20113;-32
2023/03/06 07:01:24;;;;;;;9.33;4.03;;;;;;;15.87;52.74;95648.94;10324120;28;20022;-32
2023/03/06 07:06:25;;;;;;;4.63;3.10;;;;;;;15.92;51.92;95659.84;10332798;28;20277;-31
2023/03/06 07:11:25;;;;;;;6.53;3.13;;;;;;;15.94;51.41;95660.66;10292973;28;20035;-31
2023/03/06 07:16:26;;;;;;;4.27;2.80;;;;;;;15.94;51.55;95665.72;10293242;28;20034;-31
2023/03/06 07:21:26;;;;;;;5.18;2.85;;;;;;;15.97;51.55;95675.81;10293061;28;20030;-31
2023/03/06 07:26:27;;;;;;;4.55;2.33;;;;;;;15.93;51.57;95674.13;10292820;28;20042;-32
2023/03/06 07:31:27;;;;;;;6.28;2.58;;;;;;;15.95;51.86;95682.53;10321126;28;20498;-31
2023/03/06 07:36:28;;;;;;;3.97;2.57;;;;;;;15.94;51.80;95675.81;10331396;28;20030;-31
2023/03/06 07:41:28;;;;;;;3.00;2.00;;;;;;;15.93;51.35;95681.72;10332250;28;20281;-32
2023/03/06 07:46:29;;;;;;;4.23;3.17;;;;;;;15.90;51.59;95678.38;10330670;28;20482;-31
2023/03/06 07:51:29;;;;;;;5.27;2.40;;;;;;;15.90;52.08;95693.50;10331413;28;20487;-31
2023/03/06 07:56:29;;;;;;;3.73;2.33;;;;;;;15.85;51.95;95696.06;10331356;28;20049;-32
2023/03/06 08:01:30;;;;;;;7.43;2.03;;;;;;;15.82;52.06;95695.22;10300621;28;20296;-31
2023/03/06 08:06:31;;;;;;;4.00;2.10;;;;;;;15.85;51.97;95701.09;10297902;28;20046;-32
2023/03/06 08:11:32;;;;;;;5.30;2.65;;;;;;;15.93;52.45;95708.66;10330876;28;20030;-32
2023/03/06 08:16:32;;;;;;;4.07;2.80;;;;;;;15.93;52.51;95706.94;10329796;28;20031;-32
2023/03/06 08:21:32;;;;;;;3.60;2.40;;;;;;;15.92;51.94;95705.28;10330040;28;20053;-32
2023/03/06 08:26:33;;;;;;;3.75;2.58;;;;;;;15.95;51.28;95705.25;10330034;28;20088;-32
2023/03/06 08:31:44;;;;;;;4.93;2.30;;;;;;;15.98;51.51;95707.78;10329344;28;20082;-32
2023/03/06 08:36:45;;;;;;;3.22;1.98;;;;;;;15.98;51.60;95707.78;10329128;28;20308;-31
2023/03/06 08:41:45;;;;;;;2.63;2.42;;;;;;;15.98;51.76;95702.72;10329993;28;20038;-31
2023/03/06 08:46:45;;;;;;;5.07;2.15;;;;;;;15.98;51.74;95711.97;10328621;28;20100;-32
2023/03/06 08:51:46;;;;;;;3.03;2.30;;;;;;;15.98;51.61;95722.91;10329146;28;20049;-32
2023/03/06 08:56:46;;;;;;;2.27;2.03;;;;;;;15.96;51.42;95722.06;10327915;28;20056;-33
2023/03/06 09:01:47;;;;;;;2.78;2.20;;;;;;;15.96;51.47;95719.53;10328138;28;20034;-32
2023/03/06 09:06:47;;;;;;;2.50;2.03;;;;;;;15.93;51.37;95724.63;10324213;28;20109;-31
2023/03/06 09:11:47;;;;;;;2.80;1.80;;;;;;;15.93;51.35;95727.13;10288102;28;20039;-31
2023/03/06 09:16:48;;;;;;;4.37;2.10;;;;;;;15.91;51.51;95716.22;10321588;28;20034;-31
2023/03/06 09:21:48;;;;;;;3.93;2.53;;;;;;;15.92;51.82;95720.41;10326060;28;20026;-31
2023/03/06 09:26:48;;;;;;;3.60;1.90;;;;;;;15.89;52.06;95730.53;10287898;28;20046;-32
2023/03/06 09:31:49;;;;;;;3.80;2.10;;;;;;;15.88;52.03;95736.41;10321720;28;20050;-32
2023/03/06 09:36:49;;;;;;;3.03;2.03;;;;;;;15.88;52.11;95731.34;10328410;28;20285;-32
2023/03/06 09:41:50;;;;;;;3.13;2.17;;;;;;;15.89;51.71;95728.00;10327536;28;20092;-31
2023/03/06 09:47:18;;;;;;;2.47;2.00;;;;;;;15.89;51.70;95730.53;10327032;28;20034;-32
2023/03/06 09:52:32;;;;;;;3.33;1.70;;;;;;;15.89;51.37;95732.22;10327116;28;20458;-31
2023/03/06 09:57:40;;;;;;;2.60;2.13;;;;;;;15.87;51.68;95723.81;10327100;28;20038;-33
2023/03/06 10:02:55;;;;;;;3.45;2.17;;;;;;;15.87;51.62;95733.91;10287884;28;20117;-32
2023/03/06 10:08:02;;;;;;;2.35;1.58;;;;;;;15.84;51.54;95729.72;10303437;28;20026;-32
2023/03/06 10:13:16;;;;;;;1.88;1.75;;;;;;;15.85;51.58;95721.28;10326040;28;20045;-31
2023/03/06 10:18:17;;;;;;;2.97;1.95;;;;;;;15.83;51.60;95722.16;10327427;28;20046;-31
2023/03/06 10:23:42;;;;;;;3.10;2.00;;;;;;;15.83;51.90;95712.91;10328585;28;20046;-31
2023/03/06 10:29:17;;;;;;;2.95;1.90;;;;;;;15.81;52.15;95714.59;10334203;28;20294;-31
2023/03/06 10:34:27;;;;;;;1.98;1.73;;;;;;;15.82;51.68;95706.19;10334734;28;20073;-32
2023/03/06 10:39:28;;;;;;;2.20;1.70;;;;;;;15.80;51.82;95712.09;10333929;28;20041;-31
2023/03/06 10:44:29;;;;;;;2.20;1.60;;;;;;;15.80;52.15;95707.03;10333320;28;20450;-31
2023/03/06 10:49:34;;;;;;;2.00;1.80;;;;;;;15.82;52.27;95698.63;10334269;28;20038;-32
2023/03/06 10:54:38;;;;;;;2.40;1.63;;;;;;;15.84;52.04;95701.97;10332418;28;20066;-33
2023/03/06 10:59:50;;;;;;;2.08;1.80;;;;;;;15.88;51.83;95701.06;10333028;28;20042;-32
2023/03/06 11:04:52;;;;;;;2.97;2.25;;;;;;;15.86;52.04;95699.44;10333335;28;20038;-31
2023/03/06 11:09:55;;;;;;;2.35;1.85;;;;;;;15.83;51.73;95696.91;10332992;28;20096;-32
2023/03/06 11:15:16;;;;;;;1.80;1.50;;;;;;;15.83;51.91;95692.72;10331863;28;20049;-31
2023/03/06 11:20:20;;;;;;;1.70;1.60;;;;;;;15.84;51.55;95698.59;10333393;28;20045;-32
2023/03/06 11:25:25;;;;;;;2.05;1.63;;;;;;;15.91;51.48;95696.03;10293180;28;20030;-31
2023/03/06 11:30:42;;;;;;;2.80;1.58;;;;;;;15.95;50.92;95686.75;10293375;28;20100;-31
2023/03/06 11:35:56;;;;;;;1.80;1.55;;;;;;;15.98;51.42;95687.56;10291695;28;20066;-31
2023/03/06 11:41:01;;;;;;;25.88;4.10;;;;;;;15.97;48.07;95680.00;10330015;28;20130;-32
2023/03/06 11:46:15;;;;;;;2.70;2.00;;;;;;;15.89;50.04;95667.44;10328998;28;20561;-31
2023/03/06 11:51:27;;;;;;;3.95;2.75;;;;;;;15.97;50.40;95667.38;10331581;28;20042;-35
2023/03/06 11:56:49;;;;;;;4.05;1.95;;;;;;;16.00;50.63;95667.34;10291042;28;20039;-32
2023/03/06 12:02:20;;;;;;;2.95;2.05;;;;;;;15.99;50.81;95664.00;10325143;28;20033;-31
2023/03/06 12:07:44;;;;;;;5.85;2.22;;;;;;;16.03;50.67;95669.88;10324487;28;20050;-32
2023/03/06 12:13:05;;;;;;;5.35;2.28;;;;;;;16.01;50.96;95657.25;10291923;28;20123;-32
2023/03/06 12:18:25;;;;;;;5.22;1.88;;;;;;;15.99;51.05;95668.19;10330734;28;20042;-32
2023/03/06 12:23:31;;;;;;;4.00;1.88;;;;;;;16.01;50.92;95646.31;10329838;28;20051;-31
2023/03/06 12:29:00;;;;;;;3.20;1.33;;;;;;;16.00;50.54;95650.53;10329279;28;20498;-32
2023/03/06 12:34:17;;;;;;;3.55;1.75;;;;;;;15.98;51.19;95639.63;10329494;28;20116;-31
2023/03/06 12:39:20;;;;;;;5.20;1.40;;;;;;;16.03;51.37;95640.41;10329594;28;20034;-31
2023/03/06 12:44:33;;;;;;;5.07;2.53;;;;;;;16.00;50.90;95635.38;10327024;28;20035;-32
2023/03/06 12:49:37;;;;;;;1.58;1.48;;;;;;;15.97;49.97;95634.56;10327889;28;20384;-33
2023/03/06 12:54:39;;;;;;;5.55;1.60;;;;;;;16.03;50.61;95630.31;10328856;28;20038;-31
2023/03/06 12:59:46;;;;;;;3.42;1.63;;;;;;;16.05;51.13;95627.78;10324724;28;20038;-31
2023/03/06 13:05:21;;;;;;;8.05;2.20;;;;;;;16.04;50.60;95619.34;10328928;28;20038;-32
2023/03/06 13:10:26;;;;;;;2.47;1.40;;;;;;;16.05;51.39;95627.78;10328581;28;20038;-32
2023/03/06 13:15:42;;;;;;;4.53;1.52;;;;;;;16.02;51.73;95628.63;10327423;28;20302;-31
2023/03/06 13:20:44;;;;;;;5.50;2.78;;;;;;;16.02;51.25;95623.59;10328296;28;20038;-31
2023/03/06 13:25:47;;;;;;;3.80;1.63;;;;;;;15.99;51.26;95613.53;10321356;28;20046;-31
2023/03/06 13:30:47;;;;;;;5.35;2.03;;;;;;;16.01;51.65;95621.91;10316844;28;20034;-31
2023/03/06 13:35:54;;;;;;;2.77;1.57;;;;;;;15.99;52.47;95621.09;10328653;28;20030;-32
2023/03/06 13:41:29;;;;;;;4.22;1.40;;;;;;;16.02;51.84;95615.19;10328825;28;20034;-32
2023/03/06 13:46:34;;;;;;;45.47;3.88;;;;;;;16.08;51.30;95613.44;10326679;28;20038;-32
2023/03/06 13:51:36;;;;;;;22.23;3.85;;;;;;;16.08;51.19;95610.91;10330603;28;20373;-31
2023/03/06 13:56:37;;;;;;;14.75;2.95;;;;;;;16.05;51.56;95613.47;10329153;28;20030;-32
2023/03/06 14:01:45;;;;;;;10.97;3.27;;;;;;;16.02;51.39;95610.97;10332600;28;20026;-31
2023/03/06 14:07:00;;;;;;;9.80;3.00;;;;;;;16.03;51.56;95604.25;10335990;28;20045;-31
2023/03/06 14:12:22;;;;;;;11.00;3.53;;;;;;;16.03;51.21;95599.19;10333655;28;20501;-31
2023/03/06 14:17:28;;;;;;;6.15;2.70;;;;;;;16.04;50.91;95611.78;10334427;28;20045;-31
2023/03/06 14:22:28;;;;;;;6.75;2.97;;;;;;;16.02;50.90;95610.97;10334678;28;20062;-31
2023/03/06 14:27:41;;;;;;;6.47;3.07;;;;;;;16.03;51.27;95609.28;10334992;28;20049;-32
2023/03/06 14:32:43;;;;;;;4.30;2.67;;;;;;;16.01;51.33;95604.25;10294588;28;20250;-32
2023/03/06 14:37:48;;;;;;;5.13;3.58;;;;;;;16.02;51.38;95597.53;10295764;28;20085;-32
2023/03/06 14:43:09;;;;;;;6.55;3.03;;;;;;;16.04;50.81;95610.97;10333843;28;20399;-31
2023/03/06 14:48:14;;;;;;;7.10;2.60;;;;;;;16.05;51.19;95602.53;10334246;28;20121;-32
2023/03/06 14:53:17;;;;;;;11.93;3.25;;;;;;;16.05;51.33;95594.97;10333253;28;20498;-33
2023/03/06 14:58:47;;;;;;;5.00;2.85;;;;;;;16.05;51.30;95592.44;10332916;28;20041;-32
2023/03/06 15:03:53;;;;;;;4.50;2.95;;;;;;;16.00;49.90;95589.94;10324786;28;20046;-31
2023/03/06 15:09:02;;;;;;;3.33;2.60;;;;;;;16.02;50.73;95583.19;10332418;28;20165;-31
2023/03/06 15:14:03;;;;;;;8.77;3.80;;;;;;;16.00;50.42;95589.94;10332201;28;20043;-32
2023/03/06 15:19:04;;;;;;;7.78;4.22;;;;;;;16.03;51.17;95584.03;10332032;28;20038;-31
2023/03/06 15:24:34;;;;;;;5.60;4.15;;;;;;;16.04;51.29;95585.72;10315687;28;20450;-31
2023/03/06 15:29:37;;;;;;;5.07;4.15;;;;;;;16.02;51.33;95574.81;10308453;28;20050;-31
2023/03/06 15:34:38;;;;;;;9.93;4.00;;;;;;;16.02;51.65;95580.66;10331555;28;20100;-31
2023/03/06 15:39:40;;;;;;;12.32;5.00;;;;;;;16.07;51.19;95576.44;10331323;28;20422;-32
2023/03/06 15:44:40;;;;;;;10.00;4.63;;;;;;;16.12;50.93;95582.25;10330947;28;20033;-32
2023/03/06 15:49:41;;;;;;;11.48;4.63;;;;;;;16.07;51.55;95581.47;10332398;28;20044;-34
2023/03/06 15:54:41;;;;;;;13.35;4.78;;;;;;;16.09;51.35;95574.72;10329531;28;20046;-31
2023/03/06 15:59:43;;;;;;;11.90;4.40;;;;;;;16.07;52.19;95576.44;10330401;28;20092;-32
2023/03/06 16:04:45;;;;;;;11.93;4.15;;;;;;;16.07;51.93;95571.38;10331240;28;20064;-31
2023/03/06 16:09:45;;;;;;;6.53;3.95;;;;;;;16.05;52.67;95578.13;10306571;28;20031;-32
2023/03/06 16:14:47;;;;;;;6.83;3.30;;;;;;;15.99;53.20;95573.13;10307663;28;20053;-33
2023/03/06 16:19:48;;;;;;;8.38;3.70;;;;;;;16.03;53.21;95579.81;10330192;28;20093;-31
2023/03/06 16:24:49;;;;;;;11.57;4.28;;;;;;;16.02;52.13;95573.09;10329930;28;20030;-31
2023/03/06 16:29:49;;;;;;;17.15;4.03;;;;;;;16.07;52.53;95580.63;10324279;28;20542;-31
2023/03/06 16:34:50;;;;;;;15.53;5.07;;;;;;;16.04;52.23;95585.72;10329130;28;20096;-31
2023/03/06 16:39:50;;;;;;;8.93;4.20;;;;;;;16.05;52.20;95593.28;10329088;28;20595;-31
2023/03/06 16:44:50;;;;;;;15.63;5.20;;;;;;;16.07;52.15;95589.06;10311395;28;20041;-31
2023/03/06 16:49:56;;;;;;;15.77;4.73;;;;;;;16.09;51.86;95589.88;10307719;28;20709;-32
2023/03/06 16:54:56;;;;;;;14.75;4.57;;;;;;;16.11;52.07;95587.34;10320808;28;20038;-32
2023/03/06 16:59:56;;;;;;;21.80;4.93;;;;;;;16.10;51.50;95603.34;10315660;28;20043;-31
2023/03/06 17:04:57;;;;;;;15.73;5.22;;;;;;;16.05;51.84;95616.00;10317072;28;20041;-31
2023/03/06 17:09:57;;;;;;;13.10;5.60;;;;;;;16.06;51.76;95614.31;10327763;28;20453;-31
2023/03/06 17:14:59;;;;;;;8.63;3.90;;;;;;;16.05;50.23;95621.06;10327387;28;20305;-31
2023/03/06 17:19:59;;;;;;;9.43;3.67;;;;;;;16.04;50.43;95626.94;10328448;28;20041;-32
2023/03/06 17:25:01;;;;;;;14.18;3.60;;;;;;;16.05;50.70;95622.72;10294848;28;20286;-33
2023/03/06 17:30:02;;;;;;;13.65;4.72;;;;;;;16.03;51.56;95610.09;10288471;28;20510;-31
2023/03/06 17:35:03;;;;;;;16.88;5.25;;;;;;;16.00;51.09;95620.25;10313866;28;20422;-31
2023/03/06 17:40:07;;;;;;;6.78;3.72;;;;;;;16.03;50.01;95615.16;10327435;28;20041;-31
2023/03/06 17:45:09;;;;;;;12.50;6.63;;;;;;;15.96;47.89;95621.09;10310094;28;20039;-30
2023/03/06 17:50:10;;;;;;;9.50;3.53;;;;;;;16.01;48.96;95637.06;10315912;28;20046;-31
2023/03/06 17:55:11;;;;;;;7.35;3.53;;;;;;;16.02;48.60;95637.91;10321113;28;20050;-32
2023/03/06 18:00:12;;;;;;;7.72;4.00;;;;;;;16.03;46.84;95637.06;10338000;28;20093;-32
2023/03/06 18:05:12;;;;;;;12.40;3.65;;;;;;;16.04;47.97;95639.53;10340404;28;20030;-31
2023/03/06 18:10:13;;;;;;;7.57;3.23;;;;;;;16.05;48.09;95643.78;10314908;28;20034;-31
2023/03/06 18:15:13;;;;;;;7.10;4.03;;;;;;;16.04;48.61;95637.03;10320621;28;20034;-31
2023/03/06 18:20:14;;;;;;;5.72;3.53;;;;;;;16.02;48.98;95637.91;10332063;28;20046;-32
2023/03/06 18:25:15;;;;;;;7.60;4.05;;;;;;;15.97;47.56;95642.16;10321343;28;20537;-31
2023/03/06 18:30:15;;;;;;;11.13;3.55;;;;;;;15.98;49.08;95657.28;10304239;28;20042;-31
2023/03/06 18:35:16;;;;;;;7.30;3.72;;;;;;;15.97;48.37;95665.72;10299830;28;20053;-32
2023/03/06 18:40:16;;;;;;;5.47;3.28;;;;;;;15.98;47.38;95653.91;10341614;28;20042;-32
2023/03/06 18:45:17;;;;;;;8.30;3.55;;;;;;;15.98;47.72;95652.25;10341898;28;20030;-32
2023/03/06 18:50:18;;;;;;;5.82;3.25;;;;;;;15.97;48.77;95663.19;10357853;28;20034;-32
2023/03/06 18:55:18;;;;;;;7.20;3.55;;;;;;;15.95;49.55;95659.81;10356114;28;20037;-31
2023/03/06 19:00:19;;;;;;;5.70;3.63;;;;;;;15.98;48.36;95657.28;10354430;28;20033;-33
2023/03/06 19:05:19;;;;;;;10.63;2.55;;;;;;;15.98;48.05;95661.47;10356648;28;20520;-31
2023/03/06 19:10:20;;;;;;;3.30;2.73;;;;;;;16.02;47.54;95656.41;10351478;28;20509;-32
2023/03/06 19:15:20;;;;;;;4.97;2.25;;;;;;;16.03;47.00;95654.72;10351678;28;20300;-32
2023/03/06 19:20:22;;;;;;;6.40;3.40;;;;;;;15.99;47.04;95648.84;10356214;28;20037;-32
2023/03/06 19:25:22;;;;;;;3.75;2.30;;;;;;;15.93;47.36;95653.94;10352829;28;21235;-32
2023/03/06 19:30:24;;;;;;;4.60;2.57;;;;;;;15.95;48.04;95659.81;10339026;28;20042;-32
2023/03/06 19:35:28;;;;;;;3.80;2.92;;;;;;;15.94;47.24;95655.63;10331412;28;20483;-31
2023/03/06 19:40:29;;;;;;;4.60;2.40;;;;;;;15.94;47.20;95654.78;10332229;28;20483;-32
2023/03/06 19:45:29;;;;;;;3.50;2.20;;;;;;;15.92;47.69;95647.22;10338629;28;20046;-31
2023/03/06 19:50:29;;;;;;;3.72;2.22;;;;;;;15.91;47.39;95652.28;10327232;28;20068;-32
2023/03/06 19:55:30;;;;;;;5.27;2.40;;;;;;;15.89;47.70;95657.34;10341770;28;20034;-32
2023/03/06 20:00:31;;;;;;;5.55;2.72;;;;;;;15.86;47.39;95654.00;10342819;28;20045;-31
2023/03/06 20:05:31;;;;;;;4.13;2.35;;;;;;;15.82;47.67;95655.72;10347816;28;20641;-31
2023/03/06 20:10:35;;;;;;;7.78;2.70;;;;;;;15.86;47.79;95641.41;10346331;28;20084;-31
2023/03/06 20:15:36;;;;;;;4.90;2.70;;;;;;;15.84;48.33;95648.97;10343598;28;20128;-31
2023/03/06 20:20:38;;;;;;;5.17;2.80;;;;;;;15.80;46.80;95632.19;10342286;28;20088;-32
2023/03/06 20:25:38;;;;;;;3.83;2.60;;;;;;;15.84;46.53;95638.88;10345115;28;20026;-32
2023/03/06 20:30:38;;;;;;;8.15;2.75;;;;;;;15.82;47.56;95639.72;10347584;28;20053;-31
2023/03/06 20:35:41;;;;;;;9.80;2.50;;;;;;;15.83;47.40;95639.72;10290789;28;20034;-32
2023/03/06 20:40:42;;;;;;;4.38;3.05;;;;;;;15.85;46.88;95632.97;10301085;28;20030;-31
2023/03/06 20:45:54;;;;;;;6.55;2.88;;;;;;;15.87;47.89;95622.88;10328177;28;20042;-31
2023/03/06 20:51:24;;;;;;;8.23;2.72;;;;;;;15.94;47.68;95635.41;10327044;28;20050;-32
2023/03/06 20:56:27;;;;;;;4.15;2.85;;;;;;;15.95;47.22;95639.63;10288569;28;20477;-32
2023/03/06 21:01:37;;;;;;;5.43;2.80;;;;;;;15.93;47.62;95643.84;10318220;28;20038;-31
2023/03/06 21:06:37;;;;;;;5.75;2.40;;;;;;;15.92;47.36;95632.09;10328237;28;20042;-31
2023/03/06 21:11:37;;;;;;;3.20;2.33;;;;;;;15.91;48.56;95627.88;10328242;28;20046;-33
2023/03/06 21:16:39;;;;;;;3.63;2.43;;;;;;;15.94;47.17;95625.31;10327595;28;20085;-31
2023/03/06 21:21:39;;;;;;;5.53;2.67;;;;;;;15.93;46.86;95616.09;10339625;28;20316;-32
2023/03/06 21:26:39;;;;;;;10.15;2.72;;;;;;;15.96;47.41;95618.56;10327151;28;20053;-31
2023/03/06 21:31:42;;;;;;;6.07;2.53;;;;;;;15.90;49.74;95615.28;10324791;28;20133;-36
2023/03/06 21:36:43;;;;;;;2.30;1.95;;;;;;;15.90;49.66;95618.66;10319593;28;20031;-31
2023/03/06 21:41:43;;;;;;;3.67;2.33;;;;;;;15.92;48.07;95614.41;10288106;28;20523;-32
2023/03/06 21:46:43;;;;;;;3.03;2.50;;;;;;;15.93;47.19;95622.84;10320313;28;20066;-32
2023/03/06 21:51:44;;;;;;;5.57;2.97;;;;;;;15.87;47.86;95606.03;10327838;28;20038;-31
2023/03/06 21:56:44;;;;;;;4.40;2.20;;;;;;;15.86;47.91;95598.50;10326986;28;20530;-31
2023/03/06 22:01:46;;;;;;;5.83;3.20;;;;;;;15.85;48.08;95600.16;10294206;28;20034;-32
2023/03/06 22:06:46;;;;;;;3.10;2.28;;;;;;;15.84;47.39;95607.72;10287558;28;20706;-31
2023/03/06 22:11:47;;;;;;;5.77;2.53;;;;;;;15.83;47.64;95606.91;10287551;28;20097;-31
2023/03/06 22:16:50;;;;;;;4.17;2.63;;;;;;;15.83;47.37;95601.88;10287833;28;20042;-32
2023/03/06 22:21:50;;;;;;;3.92;2.88;;;;;;;15.80;47.84;95601.91;10293475;28;20040;-31
2023/03/06 22:26:51;;;;;;;5.20;2.30;;;;;;;15.81;47.91;95596.00;10330507;28;20042;-32
2023/03/06 22:31:51;;;;;;;4.43;2.23;;;;;;;15.79;48.01;95595.16;10300384;28;20046;-31
2023/03/06 22:36:52;;;;;;;4.03;2.83;;;;;;;15.81;47.70;95595.16;10294509;28;20086;-31
2023/03/06 22:41:55;;;;;;;4.38;2.50;;;;;;;15.81;47.76;95597.69;10334692;28;20038;-31
2023/03/06 22:46:56;;;;;;;2.75;2.25;;;;;;;15.79;47.52;95591.81;10333402;28;20041;-32
2023/03/06 22:51:57;;;;;;;4.45;2.55;;;;;;;15.81;49.14;95590.97;10333830;28;20034;-32
2023/03/06 22:56:57;;;;;;;3.77;2.67;;;;;;;15.80;48.85;95584.25;10333949;28;20030;-32
2023/03/06 23:01:57;;;;;;;3.83;2.03;;;;;;;15.83;47.41;95591.78;10333384;28;20030;-32
2023/03/06 23:06:58;;;;;;;3.07;2.37;;;;;;;15.76;47.77;95575.00;10333146;28;20040;-31
2023/03/06 23:11:58;;;;;;;3.60;2.28;;;;;;;15.77;47.42;95580.91;10333187;28;20049;-31
2023/03/06 23:17:17;;;;;;;4.32;2.50;;;;;;;15.78;47.57;95565.72;10332355;28;20058;-31
2023/03/06 23:22:36;;;;;;;3.15;2.13;;;;;;;15.75;47.29;95568.28;10323570;28;20039;-31
2023/03/06 23:27:55;;;;;;;3.03;2.25;;;;;;;15.78;47.37;95572.47;10295128;28;20046;-32
2023/03/06 23:32:55;;;;;;;3.57;2.67;;;;;;;15.74;47.22;95581.75;10331917;28;20035;-31